Telluride, CO

3:31 AM MDT on July 02, 2015 (GMT -0600)
Upper Benchmark | | Change Station
CLOSE
Current Station
Personal Weather Station
Location: Mountain Village, CO
Elevation: 10118 ft
Nearby Weather Stations

Elev 10118 ft 37.92 °N, 107.86 °W | Updated 5 seconds ago

Overcast
Overcast
59.7 °F
Feels Like 59.7 °F
N
0.0
Wind Variable Wind from NE
Gusts 0.0 mph

Today
High -- | Low -- °F
--% Chance of Precip.
Yesterday
High -- | Low -- °F
Precip. -- in
5:53 AM 8:37 PM
Full, 100% visible
Pressure 30.42 in
Visibility 10.0 miles
Clouds Mostly Cloudy 7500 ft
Overcast 9000 ft
Dew Point 44 °F
Humidity 56%
Rainfall 0.00 in
Snow Depth Not available.
UV 0.0 out of 12
Pollen 4.90 out of 12
Air Quality Not available.
Flu Activity Not available.
METAR KTEX 020915Z AUTO 00000KT 10SM BKN075 OVC090 18/07 A3042 RMK AO2 LTG DSNT SE T01820065

More Conditions Fewer Conditions

Pressure 30.42 in
Visibility 10.0 miles
Clouds Mostly Cloudy 7500 ft
Overcast 9000 ft
Dew Point 44 °F
Humidity 56%
Rainfall 0.00 in
Snow Depth Not available.
UV 0.0 out of 12
Pollen 4.90 out of 12
Air Quality Not available.
Flu Activity Not available.
METAR KTEX 020915Z AUTO 00000KT 10SM BKN075 OVC090 18/07 A3042 RMK AO2 LTG DSNT SE T01820065

More Conditions Fewer Conditions

Nowcast | as of 2:34 am MDT on July 2, 2015

At 231 am MDT...Doppler radar indicated a large area of showers and thunderstorms moving from the northwest to southeast over eastern Utah and southern Colorado. These storms and showers are moving southwest at 15 mph. Expect occasional heavy rain and gusty winds as these showers and storms continue moving to the southwest. Locations impacted include... Durango...Blanding...Monticello...La Sal...Mexican Hat...Cortez... Bayfield...Telluride...Mancos...Mountain Village...Dolores...Dove Creek...Ignacio...Silverton...Naturita...Norwood...Rico...Sawpit... Aneth and Eastland.

×

10-Day Weather Forecast

×

Almanac

Astronomy

Jul. 02, 2015 Rise Set
Actual Time
Civil Twilight
Nautical Twilight
Astronomical Twilight
Moon
Length of Visible Light
Length of Day
Tomorrow will be .
, % of the Moon is Illuminated

Today's Extremes

State Highs State Lows

Community

WunderPhotos

Upload Photos

1,834,434 photos uploaded!

WunderBlogs® & News

Nearby

Air Quality

  Air Quality AQ Index Pollutant
Not available.

Snow Depth

Station Depth Elevation

Earthquake Activity

City Distance Mag. Time & Date
Minimum magnitude displayed is 2.5.

Coastal Water Temperatures

Place Temperature

Stations

Nearby Weather Stations

Station Location Temp. Windchill Dew Point Humidity Wind Precip. Elev Updated Type